createdAt,value
2023-04-01T00:01:55.652Z,10.13
2023-04-01T00:04:23.120Z,12.20
2023-04-01T00:06:50.614Z,12.25
2023-04-01T00:09:18.077Z,9.88
2023-04-01T00:11:46.435Z,9.63
2023-04-01T00:14:13.886Z,11.35
2023-04-01T00:16:41.281Z,12.52
2023-04-01T00:19:08.849Z,12.30
2023-04-01T00:21:37.878Z,11.68
2023-04-01T00:24:05.366Z,10.65
2023-04-01T00:26:32.598Z,12.18
2023-04-01T00:29:00.439Z,11.45
2023-04-01T00:31:27.938Z,10.73
2023-04-01T00:33:55.227Z,9.82
2023-04-01T00:36:24.256Z,13.05
2023-04-01T00:38:52.694Z,10.27
2023-04-01T00:41:22.932Z,10.90
2023-04-01T00:43:52.528Z,11.35
2023-04-01T00:46:20.336Z,10.73
2023-04-01T00:48:52.474Z,10.55
2023-04-01T00:51:24.792Z,10.95
2023-04-01T00:53:56.878Z,9.65
2023-04-01T00:56:33.305Z,11.13
2023-04-01T00:59:03.683Z,10.75
2023-04-01T01:01:32.278Z,8.68
2023-04-01T01:04:00.668Z,9.82
2023-04-01T01:06:41.639Z,9.68
2023-04-01T01:09:17.850Z,10.38
2023-04-01T01:11:54.244Z,8.68
2023-04-01T01:14:26.817Z,11.15
2023-04-01T01:17:03.078Z,9.23
2023-04-01T01:19:54.314Z,9.13
2023-04-01T01:22:50.901Z,8.82
2023-04-01T01:25:46.967Z,9.20
2023-04-01T01:28:19.800Z,8.32
2023-04-01T01:31:09.158Z,10.38
2023-04-01T01:34:09.134Z,9.65
2023-04-01T01:36:38.611Z,8.75
2023-04-01T01:39:08.383Z,7.80
2023-04-01T01:41:39.095Z,7.88
2023-04-01T01:44:09.207Z,8.00
2023-04-01T01:46:39.102Z,8.77
2023-04-01T01:49:08.316Z,8.73
2023-04-01T01:51:36.009Z,7.97
2023-04-01T01:54:03.434Z,9.02
2023-04-01T01:56:31.905Z,6.90
2023-04-01T01:59:09.489Z,8.43
2023-04-01T02:01:42.719Z,7.97
2023-04-01T02:04:12.233Z,8.73
2023-04-01T02:06:45.047Z,7.82
2023-04-01T02:09:12.802Z,8.25
2023-04-01T02:11:52.012Z,7.10
2023-04-01T02:14:23.694Z,7.32
2023-04-01T02:16:56.914Z,5.50
2023-04-01T02:19:30.524Z,5.45
2023-04-01T02:22:01.983Z,6.90
2023-04-01T02:24:32.371Z,6.45
2023-04-01T02:26:59.797Z,7.28
2023-04-01T02:29:27.963Z,5.72
2023-04-01T02:31:55.910Z,7.75
2023-04-01T02:34:24.961Z,5.85
2023-04-01T02:36:54.339Z,5.30
2023-04-01T02:39:21.819Z,5.63
2023-04-01T02:41:49.129Z,5.35
2023-04-01T02:44:17.257Z,4.60
2023-04-01T02:46:44.768Z,4.78
2023-04-01T02:49:12.319Z,4.05
2023-04-01T02:51:39.590Z,5.68
2023-04-01T02:54:06.875Z,5.63
2023-04-01T02:56:34.170Z,4.78
2023-04-01T02:59:01.402Z,4.45
2023-04-01T03:01:28.828Z,4.03
2023-04-01T03:03:56.304Z,5.63
2023-04-01T03:06:23.551Z,5.13
2023-04-01T03:08:51.051Z,3.63
2023-04-01T03:11:18.322Z,4.53
2023-04-01T03:13:45.651Z,5.88
2023-04-01T03:16:12.945Z,6.47
2023-04-01T03:18:40.373Z,4.30
2023-04-01T03:21:19.418Z,4.75
2023-04-01T03:23:46.742Z,5.00
2023-04-01T03:26:14.597Z,4.30
2023-04-01T03:28:41.952Z,4.20
2023-04-01T03:31:09.688Z,3.70
2023-04-01T03:33:37.070Z,4.07
2023-04-01T03:36:07.472Z,4.10
2023-04-01T03:38:37.511Z,5.13
2023-04-01T03:41:04.907Z,4.78
2023-04-01T03:43:32.162Z,4.10
2023-04-01T03:45:59.656Z,4.38
2023-04-01T03:48:27.508Z,3.72
2023-04-01T03:50:54.832Z,3.90
2023-04-01T03:53:22.114Z,3.88
2023-04-01T03:55:49.452Z,4.80
2023-04-01T03:58:16.945Z,4.45
2023-04-01T04:00:44.205Z,5.13
2023-04-01T04:03:11.494Z,4.53
2023-04-01T04:05:39.048Z,5.45
2023-04-01T04:08:06.332Z,4.55
2023-04-01T04:10:33.701Z,4.00
2023-04-01T04:13:00.993Z,3.90
2023-04-01T04:15:28.356Z,5.05
2023-04-01T04:17:55.766Z,3.80
2023-04-01T04:20:23.093Z,4.97
2023-04-01T04:22:50.439Z,5.13
2023-04-01T04:25:17.821Z,4.70
2023-04-01T04:27:45.112Z,5.20
2023-04-01T04:30:12.738Z,4.78
2023-04-01T04:32:40.049Z,3.38
2023-04-01T04:35:07.685Z,3.90
2023-04-01T04:37:35.401Z,4.65
2023-04-01T04:40:02.834Z,4.38
2023-04-01T04:42:30.300Z,4.95
2023-04-01T04:44:57.549Z,4.38
2023-04-01T04:47:24.925Z,4.63
2023-04-01T04:49:52.271Z,5.50
2023-04-01T04:52:19.578Z,4.47
2023-04-01T04:54:46.852Z,4.60
2023-04-01T04:57:14.168Z,3.70
2023-04-01T04:59:41.509Z,5.38
2023-04-01T05:02:08.936Z,4.07
2023-04-01T05:04:37.761Z,4.85
2023-04-01T05:07:05.175Z,6.07
2023-04-01T05:09:33.102Z,4.20
2023-04-01T05:12:00.433Z,4.20
2023-04-01T05:14:27.706Z,4.35
2023-04-01T05:16:55.659Z,4.45
2023-04-01T05:19:23.140Z,3.90
2023-04-01T05:21:51.024Z,5.25
2023-04-01T05:24:18.267Z,4.20
2023-04-01T05:26:45.836Z,4.80
2023-04-01T05:29:13.552Z,4.70
2023-04-01T05:31:40.851Z,3.50
2023-04-01T05:34:08.144Z,4.28
2023-04-01T05:36:36.642Z,4.35
2023-04-01T05:39:04.389Z,3.50
2023-04-01T05:41:31.761Z,3.55
2023-04-01T05:43:59.029Z,3.30
2023-04-01T05:46:26.359Z,3.17
2023-04-01T05:48:53.660Z,4.28
2023-04-01T05:51:21.435Z,4.55
2023-04-01T05:53:48.747Z,5.00
2023-04-01T05:56:16.439Z,4.95
2023-04-01T05:58:43.744Z,4.22
2023-04-01T06:01:16.195Z,4.50
2023-04-01T06:03:44.075Z,3.95
2023-04-01T06:06:26.188Z,4.68
2023-04-01T06:08:56.638Z,3.92
2023-04-01T06:11:27.277Z,4.78
2023-04-01T06:14:06.946Z,5.45
2023-04-01T06:17:10.916Z,6.03
2023-04-01T06:19:54.992Z,5.22
2023-04-01T06:22:46.294Z,6.93
2023-04-01T06:25:39.804Z,5.95
2023-04-01T06:28:28.732Z,6.25
2023-04-01T06:31:06.442Z,7.82
2023-04-01T06:33:43.680Z,7.03
2023-04-01T06:36:22.352Z,7.32
2023-04-01T06:39:04.208Z,6.35
2023-04-01T06:41:34.580Z,6.20
2023-04-01T06:44:22.166Z,6.60
2023-04-01T06:46:57.482Z,8.10
2023-04-01T06:49:40.557Z,7.80
2023-04-01T06:52:42.807Z,7.50
2023-04-01T06:55:27.132Z,6.05
2023-04-01T06:57:58.829Z,5.43
2023-04-01T07:00:37.850Z,7.80
2023-04-01T07:03:34.132Z,5.15
2023-04-01T07:06:13.580Z,7.05
2023-04-01T07:08:44.185Z,6.10
2023-04-01T07:11:17.451Z,7.28
2023-04-01T07:13:55.649Z,9.20
2023-04-01T07:16:35.091Z,6.72
2023-04-01T07:19:19.662Z,7.78
2023-04-01T07:21:52.218Z,6.60
2023-04-01T07:24:26.829Z,7.07
2023-04-01T07:26:58.378Z,5.93
2023-04-01T07:29:27.411Z,7.45
2023-04-01T07:32:00.441Z,8.25
2023-04-01T07:34:52.070Z,6.40
2023-04-01T07:37:26.937Z,7.68
2023-04-01T07:40:08.756Z,6.10
2023-04-01T07:42:57.467Z,8.20
2023-04-01T07:45:48.472Z,7.00
2023-04-01T07:48:30.408Z,7.60
2023-04-01T07:51:16.301Z,8.32
2023-04-01T07:54:02.227Z,7.70
2023-04-01T07:56:52.612Z,7.90
2023-04-01T07:59:27.342Z,7.88
2023-04-01T08:05:16.239Z,10.10
2023-04-01T08:08:16.198Z,7.55
2023-04-01T08:10:49.581Z,8.65
2023-04-01T08:13:35.668Z,8.65
2023-04-01T08:16:54.671Z,9.93
2023-04-01T08:19:40.305Z,8.13
2023-04-01T08:22:21.027Z,7.93
2023-04-01T08:24:51.952Z,8.40
2023-04-01T08:27:44.583Z,8.40
2023-04-01T08:30:55.925Z,9.07
2023-04-01T08:33:28.240Z,8.15
2023-04-01T08:36:08.304Z,7.75
2023-04-01T08:38:43.811Z,8.65
2023-04-01T08:41:41.624Z,8.40
2023-04-01T08:44:17.583Z,9.25
2023-04-01T08:46:59.841Z,7.88
2023-04-01T08:49:56.291Z,7.93
2023-04-01T08:52:37.713Z,8.60
2023-04-01T08:55:28.624Z,10.15
2023-04-01T08:58:02.321Z,8.05
2023-04-01T09:00:39.128Z,9.93
2023-04-01T09:03:53.914Z,9.93
2023-04-01T09:06:21.286Z,10.13
2023-04-01T09:08:54.168Z,9.18
2023-04-01T09:11:53.623Z,10.20
2023-04-01T09:15:02.647Z,11.65
2023-04-01T09:17:51.540Z,10.35
2023-04-01T09:20:53.097Z,10.07
2023-04-01T09:23:38.796Z,9.93
2023-04-01T09:26:40.244Z,10.68
2023-04-01T09:29:38.041Z,11.38
2023-04-01T09:32:34.538Z,10.55
2023-04-01T09:35:31.986Z,9.40
2023-04-01T09:38:22.632Z,10.07
2023-04-01T09:41:11.108Z,10.23
2023-04-01T09:43:59.829Z,10.02
2023-04-01T09:46:59.115Z,10.80
2023-04-01T09:49:50.761Z,9.68
2023-04-01T09:52:46.978Z,10.65
2023-04-01T09:55:29.475Z,10.25
2023-04-01T09:58:24.978Z,8.88
2023-04-01T10:01:12.729Z,8.18
2023-04-01T10:03:55.693Z,9.82
2023-04-01T10:06:47.806Z,9.85
2023-04-01T10:10:07.587Z,9.55
2023-04-01T10:12:55.233Z,9.07
2023-04-01T10:16:04.321Z,9.32
2023-04-01T10:18:47.449Z,8.95
2023-04-01T10:21:37.530Z,9.48
2023-04-01T10:24:23.438Z,8.77
2023-04-01T10:27:00.988Z,9.35
2023-04-01T10:29:46.822Z,9.23
2023-04-01T10:32:20.260Z,8.10
2023-04-01T10:35:24.075Z,9.23
2023-04-01T10:38:16.139Z,10.02
2023-04-01T10:41:04.986Z,9.65
2023-04-01T10:43:51.709Z,8.38
2023-04-01T10:46:54.239Z,8.43
2023-04-01T10:49:48.385Z,9.45
2023-04-01T10:52:34.072Z,8.13
2023-04-01T10:55:27.345Z,10.35
2023-04-01T10:58:23.676Z,8.35
2023-04-01T11:01:16.104Z,7.20
2023-04-01T11:04:05.361Z,8.73
2023-04-01T11:06:54.872Z,8.18
2023-04-01T11:09:48.098Z,7.82
2023-04-01T11:12:45.581Z,8.13
2023-04-01T11:15:34.288Z,8.43
2023-04-01T11:18:07.410Z,7.57
2023-04-01T11:20:34.666Z,8.32
2023-04-01T11:23:23.676Z,7.50
2023-04-01T11:26:09.091Z,7.65
2023-04-01T11:29:29.885Z,8.70
2023-04-01T11:32:29.639Z,7.15
2023-04-01T11:35:06.135Z,7.63
2023-04-01T11:37:58.724Z,8.13
2023-04-01T11:40:44.475Z,7.95
2023-04-01T11:43:37.812Z,7.03
2023-04-01T11:46:23.924Z,7.50
2023-04-01T11:49:06.278Z,7.40
2023-04-01T11:52:00.128Z,7.82
2023-04-01T11:54:42.526Z,7.30
2023-04-01T11:57:43.870Z,8.70
2023-04-01T12:00:41.728Z,7.80
2023-04-01T12:03:37.140Z,7.70
2023-04-01T12:06:16.072Z,8.85
2023-04-01T12:09:08.634Z,9.43
2023-04-01T12:11:57.574Z,8.80
2023-04-01T12:14:49.390Z,8.23
2023-04-01T12:18:01.968Z,8.43
2023-04-01T12:20:51.448Z,9.25
2023-04-01T12:23:31.563Z,9.68
2023-04-01T12:26:25.084Z,7.30
2023-04-01T12:29:15.391Z,9.27
2023-04-01T12:32:10.694Z,8.95
2023-04-01T12:37:26.006Z,8.30
2023-04-01T12:40:04.391Z,8.15
2023-04-01T12:42:53.661Z,10.13
2023-04-01T12:45:45.008Z,8.43
2023-04-01T12:48:27.510Z,8.10
2023-04-01T12:51:15.573Z,9.00
2023-04-01T12:54:16.932Z,9.30
2023-04-01T12:57:42.866Z,8.30
2023-04-01T13:00:31.093Z,9.30
2023-04-01T13:03:04.556Z,9.48
2023-04-01T13:05:46.943Z,8.10
2023-04-01T13:08:20.558Z,8.77
2023-04-01T13:11:43.014Z,8.13
2023-04-01T13:14:31.230Z,9.13
2023-04-01T13:17:02.794Z,9.48
2023-04-01T13:19:43.240Z,8.15
2023-04-01T13:22:46.147Z,8.38
2023-04-01T13:25:36.306Z,8.30
2023-04-01T13:28:24.603Z,7.70
2023-04-01T13:31:06.904Z,8.05
2023-04-01T13:33:57.831Z,7.22
2023-04-01T13:37:04.216Z,9.07
2023-04-01T13:39:43.680Z,8.15
2023-04-01T13:42:29.379Z,8.98
2023-04-01T13:45:04.783Z,9.05
2023-04-01T13:48:08.499Z,8.88
2023-04-01T13:51:03.356Z,7.43
2023-04-01T13:53:45.528Z,8.15
2023-04-01T13:56:57.712Z,7.88
2023-04-01T13:59:48.269Z,7.43
2023-04-01T14:02:21.320Z,6.88
2023-04-01T14:05:00.916Z,7.90
2023-04-01T14:07:47.184Z,7.03
2023-04-01T14:10:52.456Z,6.70
2023-04-01T14:13:51.908Z,6.72
2023-04-01T14:16:21.932Z,7.22
2023-04-01T14:19:20.514Z,6.65
2023-04-01T14:22:26.608Z,7.50
2023-04-01T14:25:15.509Z,5.63
2023-04-01T14:27:43.365Z,6.43
2023-04-01T14:30:17.023Z,6.70
2023-04-01T14:33:21.467Z,6.70
2023-04-01T14:36:16.512Z,6.22
2023-04-01T14:39:07.356Z,7.57
2023-04-01T14:42:11.905Z,5.75
2023-04-01T14:44:56.509Z,6.50
2023-04-01T14:47:23.780Z,6.18
2023-04-01T14:49:55.058Z,5.88
2023-04-01T14:52:45.481Z,6.50
2023-04-01T14:55:30.928Z,5.72
2023-04-01T14:58:09.936Z,7.13
2023-04-01T15:01:15.441Z,6.47
2023-04-01T15:04:04.462Z,5.88
2023-04-01T15:07:07.151Z,5.65
2023-04-01T15:09:34.438Z,6.15
2023-04-01T15:12:13.918Z,6.20
2023-04-01T15:15:18.475Z,6.40
2023-04-01T15:18:10.376Z,6.35
2023-04-01T15:21:02.156Z,5.95
2023-04-01T15:23:57.807Z,8.77
2023-04-01T15:26:49.422Z,5.90
2023-04-01T15:29:35.758Z,6.15
2023-04-01T15:32:22.543Z,5.95
2023-04-01T15:34:55.343Z,7.00
2023-04-01T15:37:54.545Z,5.65
2023-04-01T15:40:31.380Z,5.90
2023-04-01T15:43:25.855Z,5.93
2023-04-01T15:45:58.916Z,5.37
2023-04-01T15:48:59.063Z,6.10
2023-04-01T15:51:52.968Z,6.70
2023-04-01T15:54:26.279Z,5.97
2023-04-01T15:57:16.382Z,5.28
2023-04-01T16:00:17.786Z,5.93
2023-04-01T16:02:48.426Z,5.57
2023-04-01T16:05:28.648Z,6.55
2023-04-01T16:08:07.883Z,7.38
2023-04-01T16:10:56.772Z,6.05
2023-04-01T16:13:39.350Z,5.60
2023-04-01T16:16:25.539Z,5.65
2023-04-01T16:19:07.453Z,5.97
2023-04-01T16:21:52.992Z,5.53
2023-04-01T16:24:52.390Z,5.78
2023-04-01T16:27:28.297Z,5.47
2023-04-01T16:30:26.869Z,4.57
2023-04-01T16:33:15.215Z,5.57
2023-04-01T16:35:49.078Z,5.43
2023-04-01T16:38:33.185Z,5.80
2023-04-01T16:41:06.826Z,6.07
2023-04-01T16:43:44.855Z,4.07
2023-04-01T16:46:35.028Z,4.88
2023-04-01T16:49:26.341Z,4.57
2023-04-01T16:51:55.925Z,4.75
2023-04-01T16:54:31.697Z,4.82
2023-04-01T16:57:19.869Z,6.63
2023-04-01T17:00:03.139Z,3.88
2023-04-01T17:02:44.940Z,6.18
2023-04-01T17:05:14.275Z,5.43
2023-04-01T17:08:01.872Z,5.30
2023-04-01T17:10:34.968Z,5.72
2023-04-01T17:13:23.283Z,3.95
2023-04-01T17:16:08.857Z,5.47
2023-04-01T17:18:38.904Z,4.68
2023-04-01T17:21:12.003Z,5.95
2023-04-01T17:24:24.818Z,6.45
2023-04-01T17:27:07.050Z,5.78
2023-04-01T17:29:55.506Z,5.55
2023-04-01T17:32:50.904Z,6.38
2023-04-01T17:38:29.421Z,4.63
2023-04-01T17:40:58.625Z,5.40
2023-04-01T17:43:31.201Z,6.32
2023-04-01T17:49:46.785Z,5.75
2023-04-01T17:52:30.725Z,6.60
2023-04-01T17:55:16.838Z,7.85
2023-04-01T17:57:53.228Z,6.70
2023-04-01T18:00:54.079Z,9.90
2023-04-01T18:03:46.048Z,9.35
2023-04-01T18:06:51.392Z,11.07
2023-04-01T18:09:47.086Z,9.50
2023-04-01T18:12:46.855Z,9.13
2023-04-01T18:15:40.745Z,16.80
2023-04-01T18:18:29.554Z,9.10
2023-04-01T18:21:19.242Z,9.65
2023-04-01T18:24:20.199Z,9.25
2023-04-01T18:27:11.156Z,9.93
2023-04-01T18:30:13.422Z,10.85
2023-04-01T18:33:00.432Z,5.75
2023-04-01T18:35:59.151Z,9.30
2023-04-01T18:38:43.043Z,8.73
2023-04-01T18:41:35.810Z,6.82
2023-04-01T18:44:44.208Z,4.97
2023-04-01T18:47:50.861Z,6.82
2023-04-01T18:50:36.266Z,6.72
2023-04-01T18:53:22.835Z,5.32
2023-04-01T18:56:03.695Z,5.93
2023-04-01T18:58:43.163Z,5.82
2023-04-01T19:01:20.774Z,5.85
2023-04-01T19:03:57.906Z,8.25
2023-04-01T19:06:40.224Z,9.93
2023-04-01T19:09:44.813Z,6.53
2023-04-01T19:12:52.226Z,7.68
2023-04-01T19:16:06.132Z,7.13
2023-04-01T19:18:46.826Z,7.68
2023-04-01T19:21:22.673Z,5.45
2023-04-01T19:24:25.586Z,5.47
2023-04-01T19:27:22.588Z,8.07
2023-04-01T19:29:58.782Z,4.95
2023-04-01T19:33:03.054Z,5.85
2023-04-01T19:35:55.074Z,5.18
2023-04-01T19:38:44.076Z,5.18
2023-04-01T19:41:32.370Z,5.55
2023-04-01T19:44:21.107Z,3.75
2023-04-01T19:47:03.410Z,4.97
2023-04-01T19:49:39.893Z,4.97
2023-04-01T19:52:19.681Z,4.88
2023-04-01T19:55:09.086Z,3.70
2023-04-01T19:58:04.769Z,3.90
2023-04-01T20:00:42.234Z,5.50
2023-04-01T20:03:21.601Z,4.43
2023-04-01T20:06:16.088Z,4.40
2023-04-01T20:09:12.488Z,5.35
2023-04-01T20:12:03.981Z,6.28
2023-04-01T20:14:42.731Z,8.10
2023-04-01T20:17:31.258Z,4.97
2023-04-01T20:20:10.973Z,4.10
2023-04-01T20:22:47.265Z,5.00
2023-04-01T20:25:49.403Z,3.42
2023-04-01T20:28:19.758Z,6.93
2023-04-01T20:30:55.976Z,6.18
2023-04-01T20:33:31.796Z,3.58
2023-04-01T20:36:26.770Z,5.05
2023-04-01T20:39:04.872Z,4.50
2023-04-01T20:41:56.536Z,8.05
2023-04-01T20:44:35.884Z,4.90
2023-04-01T20:47:24.051Z,5.03
2023-04-01T20:50:01.488Z,3.92
2023-04-01T20:52:51.417Z,4.10
2023-04-01T20:55:38.949Z,4.97
2023-04-01T20:58:44.676Z,4.03
2023-04-01T21:04:24.802Z,4.47
2023-04-01T21:07:21.722Z,4.28
2023-04-01T21:09:57.866Z,5.45
2023-04-01T21:12:30.624Z,6.32
2023-04-01T21:15:35.128Z,4.38
2023-04-01T21:18:37.537Z,4.40
2023-04-01T21:21:13.428Z,4.85
2023-04-01T21:23:59.314Z,3.30
2023-04-01T21:26:44.537Z,3.45
2023-04-01T21:29:20.908Z,5.53
2023-04-01T21:32:16.066Z,3.30
2023-04-01T21:35:03.120Z,4.43
2023-04-01T21:37:39.373Z,4.47
2023-04-01T21:40:25.164Z,3.83
2023-04-01T21:43:21.358Z,4.28
2023-04-01T21:46:07.187Z,3.85
2023-04-01T21:48:52.443Z,4.18
2023-04-01T21:51:44.252Z,4.57
2023-04-01T21:54:48.285Z,6.18
2023-04-01T21:57:35.759Z,3.95
2023-04-01T22:00:03.906Z,5.05
2023-04-01T22:02:46.554Z,3.50
2023-04-01T22:05:25.412Z,3.70
2023-04-01T22:08:07.061Z,3.40
2023-04-01T22:11:09.370Z,4.07
2023-04-01T22:13:59.894Z,3.40
2023-04-01T22:16:37.929Z,3.50
2023-04-01T22:19:21.042Z,4.47
2023-04-01T22:22:02.600Z,3.78
2023-04-01T22:24:52.827Z,3.40
2023-04-01T22:27:38.617Z,3.42
2023-04-01T22:30:24.511Z,4.05
2023-04-01T22:33:12.591Z,3.38
2023-04-01T22:35:51.399Z,3.50
2023-04-01T22:38:56.909Z,3.20
2023-04-01T22:41:57.447Z,3.40
2023-04-01T22:44:38.769Z,3.30
2023-04-01T22:47:42.770Z,5.35
2023-04-01T22:50:28.944Z,4.55
2023-04-01T22:53:07.794Z,3.33
2023-04-01T22:55:39.225Z,3.70
2023-04-01T22:58:31.820Z,4.22
2023-04-01T23:01:06.398Z,3.88
2023-04-01T23:03:41.338Z,4.53
2023-04-01T23:06:38.588Z,3.22
2023-04-01T23:09:15.946Z,4.38
2023-04-01T23:11:54.281Z,3.72
2023-04-01T23:14:21.476Z,3.85
2023-04-01T23:17:08.588Z,3.53
2023-04-01T23:19:42.290Z,3.92
2023-04-01T23:22:21.675Z,4.03
2023-04-01T23:25:00.268Z,3.42
2023-04-01T23:27:42.605Z,4.05
2023-04-01T23:30:40.923Z,4.45
2023-04-01T23:33:29.148Z,3.38
2023-04-01T23:36:06.565Z,3.97
2023-04-01T23:38:40.440Z,4.05
2023-04-01T23:41:09.912Z,4.13
2023-04-01T23:43:43.679Z,3.70
2023-04-01T23:46:13.349Z,3.97
2023-04-01T23:48:43.924Z,3.70
2023-04-01T23:51:22.700Z,3.90
2023-04-01T23:54:02.249Z,5.43
2023-04-01T23:56:52.621Z,3.78
2023-04-01T23:59:37.086Z,3.65
